EZY84HC GCTS-EGCC
Flight info
| Callsign | EZY84HC |
|---|---|
| Flight time | 3h 55m |
| Altitude | 36000 |
| Route | KONBA UN866 BEXAL DCT TERVA DCT AGADO DCT KORUL DCT EBOMO DCT RUSIB DCT NOZHU DCT SHIRI DCT TOJAQ DCT EPACE DCT ACCOP DCT MOCQO P16 AXCIS |
| Aircraft | A21N/M-SDE2E3FGHIJ1RWXY/LB1 |
Departure
| Time | 2026-05-05 11:21 |
|---|---|
| Airport | Tenerife Sur Airport (GCTS) |
Arrival
| Time | 2026-05-05 15:17 |
|---|---|
| Airport | Manchester Airport (EGCC) |
| Time | Latitude | Longitude | Altitude | Speed | Heading |
|---|---|---|---|---|---|
| 2026-05-05 10:27 | 28.04557 | -16.58120 | 231 ft | 0 kts | 338° |
| 2026-05-05 11:08 | 28.04557 | -16.58119 | 231 ft | 1 kts | 338° |
| 2026-05-05 11:09 | 28.04533 | -16.58109 | 231 ft | 4 kts | 339° |
| 2026-05-05 11:09 | 28.04511 | -16.58100 | 234 ft | 3 kts | 338° |
| 2026-05-05 11:09 | 28.04492 | -16.58085 | 231 ft | 4 kts | 287° |
| 2026-05-05 11:09 | 28.04494 | -16.58057 | 230 ft | 4 kts | 249° |
| 2026-05-05 11:10 | 28.04497 | -16.58047 | 230 ft | 1 kts | 248° |
| 2026-05-05 11:16 | 28.04496 | -16.58050 | 230 ft | 1 kts | 248° |
| 2026-05-05 11:16 | 28.04489 | -16.58070 | 232 ft | 4 kts | 248° |
| 2026-05-05 11:16 | 28.04476 | -16.58107 | 231 ft | 6 kts | 248° |
| 2026-05-05 11:16 | 28.04457 | -16.58162 | 231 ft | 8 kts | 248° |
| 2026-05-05 11:17 | 28.04415 | -16.58210 | 229 ft | 10 kts | 188° |
| 2026-05-05 11:17 | 28.04348 | -16.58188 | 228 ft | 11 kts | 158° |
| 2026-05-05 11:17 | 28.04286 | -16.58226 | 230 ft | 12 kts | 248° |
| 2026-05-05 11:17 | 28.04256 | -16.58324 | 228 ft | 14 kts | 251° |
| 2026-05-05 11:18 | 28.04219 | -16.58431 | 228 ft | 15 kts | 248° |
| 2026-05-05 11:18 | 28.04184 | -16.58549 | 228 ft | 17 kts | 253° |
| 2026-05-05 11:18 | 28.04143 | -16.58673 | 224 ft | 17 kts | 248° |
| 2026-05-05 11:18 | 28.04099 | -16.58798 | 216 ft | 17 kts | 248° |
| 2026-05-05 11:19 | 28.04056 | -16.58924 | 214 ft | 16 kts | 248° |
| 2026-05-05 11:19 | 28.04019 | -16.58988 | 216 ft | 10 kts | 213° |
| 2026-05-05 11:19 | 28.03954 | -16.58978 | 214 ft | 9 kts | 132° |
| 2026-05-05 11:19 | 28.03930 | -16.58936 | 215 ft | 3 kts | 121° |
| 2026-05-05 11:20 | 28.03914 | -16.58904 | 208 ft | 8 kts | 119° |
| 2026-05-05 11:20 | 28.03899 | -16.58836 | 205 ft | 10 kts | 86° |
| 2026-05-05 11:20 | 28.03905 | -16.58810 | 206 ft | 0 kts | 69° |
| 2026-05-05 11:20 | 28.03906 | -16.58806 | 205 ft | 8 kts | 69° |
| 2026-05-05 11:21 | 28.04018 | -16.58480 | 206 ft | 80 kts | 68° |
| 2026-05-05 11:21 | 28.04299 | -16.57675 | 204 ft | 138 kts | 68° |
| 2026-05-05 11:21 | 28.04694 | -16.56547 | 430 ft | 158 kts | 68° |
| 2026-05-05 11:21 | 28.05097 | -16.55399 | 989 ft | 157 kts | 69° |
| 2026-05-05 11:22 | 28.05515 | -16.54199 | 1424 ft | 175 kts | 67° |
| 2026-05-05 11:22 | 28.05989 | -16.52828 | 1880 ft | 198 kts | 65° |
| 2026-05-05 11:22 | 28.06530 | -16.51281 | 2282 ft | 226 kts | 66° |
| 2026-05-05 11:22 | 28.07136 | -16.49539 | 2774 ft | 247 kts | 66° |
| 2026-05-05 11:23 | 28.07775 | -16.47696 | 3573 ft | 254 kts | 66° |
| 2026-05-05 11:23 | 28.08429 | -16.45809 | 4377 ft | 261 kts | 67° |
| 2026-05-05 11:23 | 28.09090 | -16.43858 | 5137 ft | 269 kts | 69° |
| 2026-05-05 11:23 | 28.09730 | -16.41861 | 5864 ft | 277 kts | 69° |
| 2026-05-05 11:24 | 28.10406 | -16.39759 | 6597 ft | 285 kts | 69° |
| 2026-05-05 11:24 | 28.11084 | -16.37657 | 7307 ft | 291 kts | 70° |
| 2026-05-05 11:24 | 28.11794 | -16.35452 | 8030 ft | 297 kts | 70° |
| 2026-05-05 11:24 | 28.12703 | -16.33322 | 8748 ft | 305 kts | 52° |
| 2026-05-05 11:25 | 28.14246 | -16.31730 | 9500 ft | 307 kts | 28° |
| 2026-05-05 11:25 | 28.16197 | -16.30712 | 10217 ft | 311 kts | 19° |
| 2026-05-05 11:25 | 28.18276 | -16.29805 | 10662 ft | 330 kts | 18° |
| 2026-05-05 11:25 | 28.20485 | -16.28832 | 11015 ft | 348 kts | 19° |
| 2026-05-05 11:26 | 28.22745 | -16.27804 | 11736 ft | 352 kts | 19° |
| 2026-05-05 11:26 | 28.25033 | -16.26744 | 12506 ft | 356 kts | 19° |
| 2026-05-05 11:26 | 28.27340 | -16.25663 | 13255 ft | 362 kts | 19° |
| 2026-05-05 11:26 | 28.29692 | -16.24558 | 13955 ft | 368 kts | 19° |
| 2026-05-05 11:27 | 28.32077 | -16.23436 | 14592 ft | 373 kts | 18° |
| 2026-05-05 11:27 | 28.34497 | -16.22301 | 15264 ft | 377 kts | 18° |
| 2026-05-05 11:27 | 28.36932 | -16.21156 | 15960 ft | 381 kts | 18° |
| 2026-05-05 11:27 | 28.39389 | -16.19994 | 16639 ft | 384 kts | 18° |
| 2026-05-05 11:28 | 28.41863 | -16.18809 | 17328 ft | 388 kts | 18° |
| 2026-05-05 11:28 | 28.44369 | -16.17614 | 18003 ft | 392 kts | 17° |
| 2026-05-05 11:28 | 28.46896 | -16.16413 | 18641 ft | 395 kts | 17° |
| 2026-05-05 11:28 | 28.49413 | -16.15215 | 19208 ft | 399 kts | 17° |
| 2026-05-05 11:29 | 28.51987 | -16.13992 | 19749 ft | 403 kts | 17° |
| 2026-05-05 11:29 | 28.54590 | -16.12756 | 20294 ft | 407 kts | 17° |
| 2026-05-05 11:29 | 28.57225 | -16.11514 | 20834 ft | 413 kts | 17° |
| 2026-05-05 11:29 | 28.59891 | -16.10248 | 21419 ft | 416 kts | 16° |
| 2026-05-05 11:30 | 28.62583 | -16.08973 | 21974 ft | 419 kts | 16° |
| 2026-05-05 11:30 | 28.65292 | -16.07692 | 22504 ft | 423 kts | 15° |
| 2026-05-05 11:30 | 28.68021 | -16.06401 | 23019 ft | 427 kts | 15° |
| 2026-05-05 11:30 | 28.70749 | -16.05107 | 23519 ft | 431 kts | 15° |
| 2026-05-05 11:31 | 28.73564 | -16.03774 | 23963 ft | 435 kts | 15° |
| 2026-05-05 11:31 | 28.76327 | -16.02471 | 24404 ft | 437 kts | 15° |
| 2026-05-05 11:31 | 28.79152 | -16.01129 | 24837 ft | 440 kts | 15° |
| 2026-05-05 11:31 | 28.81986 | -15.99792 | 25277 ft | 442 kts | 15° |
| 2026-05-05 11:32 | 28.84841 | -15.98444 | 25714 ft | 445 kts | 15° |
| 2026-05-05 11:32 | 28.87703 | -15.97089 | 26174 ft | 446 kts | 15° |
| 2026-05-05 11:32 | 28.90584 | -15.95717 | 26612 ft | 448 kts | 16° |
| 2026-05-05 11:32 | 28.93466 | -15.94345 | 27020 ft | 451 kts | 16° |
| 2026-05-05 11:33 | 28.96369 | -15.92954 | 27408 ft | 453 kts | 16° |
| 2026-05-05 11:33 | 28.99280 | -15.91556 | 27798 ft | 455 kts | 16° |
| 2026-05-05 11:33 | 29.02215 | -15.90155 | 28164 ft | 458 kts | 16° |
| 2026-05-05 11:33 | 29.05164 | -15.88751 | 28538 ft | 460 kts | 16° |
| 2026-05-05 11:34 | 29.08130 | -15.87327 | 28878 ft | 462 kts | 17° |
| 2026-05-05 11:34 | 29.11099 | -15.85891 | 29229 ft | 465 kts | 17° |
| 2026-05-05 11:34 | 29.14086 | -15.84447 | 29568 ft | 467 kts | 17° |
| 2026-05-05 11:34 | 29.16073 | -15.83493 | 29791 ft | 468 kts | 17° |
| 2026-05-05 11:35 | 29.19083 | -15.82047 | 30155 ft | 470 kts | 17° |
| 2026-05-05 11:35 | 29.22104 | -15.80593 | 30446 ft | 472 kts | 17° |
| 2026-05-05 11:35 | 29.26140 | -15.78652 | 30798 ft | 475 kts | 17° |
| 2026-05-05 11:35 | 29.28203 | -15.77657 | 30969 ft | 476 kts | 17° |
| 2026-05-05 11:36 | 29.31273 | -15.76182 | 31226 ft | 478 kts | 17° |
| 2026-05-05 11:36 | 29.34320 | -15.74721 | 31485 ft | 481 kts | 17° |
| 2026-05-05 11:36 | 29.37451 | -15.73221 | 31734 ft | 483 kts | 17° |
| 2026-05-05 11:36 | 29.40519 | -15.71750 | 31977 ft | 485 kts | 17° |
| 2026-05-05 11:37 | 29.43649 | -15.70244 | 32224 ft | 487 kts | 17° |
| 2026-05-05 11:37 | 29.46783 | -15.68736 | 32492 ft | 489 kts | 17° |
| 2026-05-05 11:37 | 29.49928 | -15.67219 | 32753 ft | 491 kts | 17° |
| 2026-05-05 11:37 | 29.53087 | -15.65699 | 32990 ft | 492 kts | 17° |
| 2026-05-05 11:38 | 29.56251 | -15.64175 | 33239 ft | 493 kts | 17° |
| 2026-05-05 11:38 | 29.59420 | -15.62643 | 33491 ft | 494 kts | 17° |
| 2026-05-05 11:38 | 29.62591 | -15.61119 | 33768 ft | 494 kts | 16° |
| 2026-05-05 11:38 | 29.65724 | -15.59612 | 34040 ft | 493 kts | 17° |
| 2026-05-05 11:39 | 29.68889 | -15.58079 | 34272 ft | 493 kts | 16° |
| 2026-05-05 11:39 | 29.72052 | -15.56549 | 34476 ft | 494 kts | 17° |
| 2026-05-05 11:39 | 29.75258 | -15.54992 | 34664 ft | 494 kts | 16° |
| 2026-05-05 11:39 | 29.78394 | -15.53477 | 34844 ft | 494 kts | 16° |
| 2026-05-05 11:40 | 29.81575 | -15.51938 | 35027 ft | 495 kts | 16° |
| 2026-05-05 11:40 | 29.84750 | -15.50399 | 35206 ft | 495 kts | 16° |
| 2026-05-05 11:40 | 29.87926 | -15.48855 | 35380 ft | 496 kts | 16° |
| 2026-05-05 11:40 | 29.91105 | -15.47308 | 35538 ft | 496 kts | 16° |
| 2026-05-05 11:41 | 29.94283 | -15.45758 | 35709 ft | 496 kts | 16° |
| 2026-05-05 11:41 | 29.97465 | -15.44207 | 35857 ft | 497 kts | 16° |
| 2026-05-05 11:41 | 30.00646 | -15.42656 | 36018 ft | 497 kts | 16° |
| 2026-05-05 11:41 | 30.03836 | -15.41101 | 36159 ft | 498 kts | 16° |
| 2026-05-05 11:42 | 30.07041 | -15.39534 | 36195 ft | 499 kts | 17° |
| 2026-05-05 11:42 | 30.13395 | -15.36425 | 36150 ft | 498 kts | 17° |
| 2026-05-05 11:43 | 30.19774 | -15.33303 | 36144 ft | 498 kts | 17° |
| 2026-05-05 11:43 | 30.26155 | -15.30174 | 36141 ft | 498 kts | 17° |
| 2026-05-05 11:44 | 30.32537 | -15.27041 | 36143 ft | 498 kts | 17° |
| 2026-05-05 11:44 | 30.38903 | -15.23909 | 36143 ft | 495 kts | 17° |
| 2026-05-05 11:45 | 30.45236 | -15.20791 | 36140 ft | 494 kts | 17° |
| 2026-05-05 11:45 | 30.51567 | -15.17670 | 36145 ft | 494 kts | 17° |
| 2026-05-05 11:46 | 30.57907 | -15.14536 | 36144 ft | 495 kts | 17° |
| 2026-05-05 11:46 | 30.64237 | -15.11407 | 36163 ft | 494 kts | 17° |
| 2026-05-05 11:47 | 30.70566 | -15.08272 | 36154 ft | 494 kts | 17° |
| 2026-05-05 11:47 | 30.76888 | -15.05136 | 36148 ft | 494 kts | 17° |
| 2026-05-05 11:48 | 30.86325 | -15.00443 | 36152 ft | 493 kts | 17° |
| 2026-05-05 11:48 | 30.92636 | -14.97301 | 36177 ft | 493 kts | 17° |
| 2026-05-05 11:49 | 30.98950 | -14.94159 | 36157 ft | 493 kts | 18° |
| 2026-05-05 11:49 | 31.05255 | -14.91016 | 36150 ft | 492 kts | 17° |
| 2026-05-05 11:50 | 31.11554 | -14.87861 | 36155 ft | 492 kts | 17° |
| 2026-05-05 11:50 | 31.17849 | -14.84713 | 36152 ft | 492 kts | 17° |
| 2026-05-05 11:51 | 31.24136 | -14.81560 | 36172 ft | 491 kts | 18° |
| 2026-05-05 11:51 | 31.30407 | -14.78407 | 36159 ft | 490 kts | 18° |
| 2026-05-05 11:52 | 31.36678 | -14.75259 | 36159 ft | 490 kts | 18° |
| 2026-05-05 11:52 | 31.42944 | -14.72108 | 36154 ft | 490 kts | 18° |
| 2026-05-05 11:53 | 31.49175 | -14.68959 | 36158 ft | 490 kts | 18° |
| 2026-05-05 11:53 | 31.55434 | -14.65800 | 36170 ft | 488 kts | 18° |
| 2026-05-05 11:54 | 31.61673 | -14.62645 | 36161 ft | 488 kts | 18° |
| 2026-05-05 11:54 | 31.67868 | -14.59509 | 36164 ft | 488 kts | 18° |
| 2026-05-05 11:55 | 31.74137 | -14.56329 | 36152 ft | 488 kts | 18° |
| 2026-05-05 11:55 | 31.80334 | -14.53181 | 36158 ft | 487 kts | 19° |
| 2026-05-05 11:56 | 31.86536 | -14.50026 | 36157 ft | 485 kts | 19° |
| 2026-05-05 11:56 | 31.92733 | -14.46871 | 36161 ft | 485 kts | 19° |
| 2026-05-05 11:57 | 31.98930 | -14.43707 | 36159 ft | 485 kts | 19° |
| 2026-05-05 11:57 | 32.05128 | -14.40542 | 36159 ft | 485 kts | 19° |
| 2026-05-05 11:58 | 32.11307 | -14.37378 | 36163 ft | 482 kts | 19° |
| 2026-05-05 11:58 | 32.17463 | -14.34225 | 36159 ft | 482 kts | 19° |
| 2026-05-05 11:59 | 32.23611 | -14.31070 | 36159 ft | 482 kts | 19° |
| 2026-05-05 11:59 | 32.29732 | -14.27922 | 36159 ft | 482 kts | 19° |
| 2026-05-05 12:00 | 32.35883 | -14.24756 | 36173 ft | 481 kts | 20° |
| 2026-05-05 12:00 | 32.41997 | -14.21604 | 36163 ft | 478 kts | 20° |
| 2026-05-05 12:01 | 32.48078 | -14.18463 | 36165 ft | 477 kts | 19° |
| 2026-05-05 12:01 | 32.54158 | -14.15323 | 36166 ft | 476 kts | 19° |
| 2026-05-05 12:02 | 32.60240 | -14.12172 | 36166 ft | 477 kts | 20° |
| 2026-05-05 12:02 | 32.66319 | -14.09018 | 36166 ft | 477 kts | 19° |
| 2026-05-05 12:03 | 32.72400 | -14.05861 | 36168 ft | 477 kts | 19° |
| 2026-05-05 12:03 | 32.78475 | -14.02702 | 36168 ft | 477 kts | 20° |
| 2026-05-05 12:04 | 32.84548 | -13.99537 | 36168 ft | 477 kts | 20° |
| 2026-05-05 12:04 | 32.90631 | -13.96365 | 36176 ft | 477 kts | 20° |
| 2026-05-05 12:05 | 32.96705 | -13.93189 | 36172 ft | 475 kts | 20° |
| 2026-05-05 12:05 | 33.02725 | -13.90040 | 36175 ft | 475 kts | 20° |
| 2026-05-05 12:06 | 33.08782 | -13.86866 | 36175 ft | 475 kts | 20° |
| 2026-05-05 12:06 | 33.14797 | -13.83609 | 36174 ft | 477 kts | 25° |
| 2026-05-05 12:07 | 33.20368 | -13.79232 | 36186 ft | 479 kts | 31° |
| 2026-05-05 12:07 | 33.25840 | -13.74697 | 36185 ft | 478 kts | 31° |
| 2026-05-05 12:08 | 33.31315 | -13.70197 | 36183 ft | 477 kts | 31° |
| 2026-05-05 12:08 | 33.36793 | -13.65691 | 36183 ft | 477 kts | 31° |
| 2026-05-05 12:09 | 33.42268 | -13.61182 | 36176 ft | 477 kts | 31° |
| 2026-05-05 12:09 | 33.47741 | -13.56664 | 36198 ft | 477 kts | 31° |
| 2026-05-05 12:10 | 33.53182 | -13.52136 | 36183 ft | 475 kts | 31° |
| 2026-05-05 12:10 | 33.58601 | -13.47615 | 36177 ft | 475 kts | 31° |
| 2026-05-05 12:11 | 33.64032 | -13.43104 | 36183 ft | 475 kts | 31° |
| 2026-05-05 12:11 | 33.69477 | -13.38599 | 36186 ft | 474 kts | 30° |
| 2026-05-05 12:12 | 33.74879 | -13.34154 | 36204 ft | 472 kts | 30° |
| 2026-05-05 12:12 | 33.80289 | -13.29659 | 36190 ft | 473 kts | 31° |
| 2026-05-05 12:13 | 33.85701 | -13.25139 | 36191 ft | 473 kts | 31° |
| 2026-05-05 12:13 | 33.91109 | -13.20616 | 36189 ft | 473 kts | 31° |
| 2026-05-05 12:14 | 33.96517 | -13.16086 | 36191 ft | 473 kts | 31° |
| 2026-05-05 12:14 | 34.01920 | -13.11545 | 36190 ft | 473 kts | 30° |
| 2026-05-05 12:15 | 34.06419 | -13.07779 | 36204 ft | 474 kts | 30° |
| 2026-05-05 12:15 | 34.11824 | -13.03231 | 36197 ft | 474 kts | 31° |
| 2026-05-05 12:16 | 34.17228 | -12.98671 | 36198 ft | 474 kts | 31° |
| 2026-05-05 12:16 | 34.22643 | -12.94109 | 36198 ft | 474 kts | 31° |
| 2026-05-05 12:17 | 34.28054 | -12.89524 | 36198 ft | 475 kts | 31° |
| 2026-05-05 12:17 | 34.33488 | -12.84976 | 36207 ft | 475 kts | 30° |
| 2026-05-05 12:18 | 34.38937 | -12.80429 | 36204 ft | 476 kts | 30° |
| 2026-05-05 12:18 | 34.44378 | -12.75858 | 36196 ft | 476 kts | 30° |
| 2026-05-05 12:19 | 34.49824 | -12.71270 | 36202 ft | 477 kts | 30° |
| 2026-05-05 12:19 | 34.55279 | -12.66680 | 36202 ft | 477 kts | 30° |
| 2026-05-05 12:20 | 34.60690 | -12.62110 | 36222 ft | 474 kts | 30° |
| 2026-05-05 12:20 | 34.66095 | -12.57537 | 36209 ft | 473 kts | 31° |
| 2026-05-05 12:21 | 34.71498 | -12.52971 | 36208 ft | 473 kts | 30° |
| 2026-05-05 12:21 | 34.76902 | -12.48390 | 36207 ft | 473 kts | 31° |
| 2026-05-05 12:22 | 34.82301 | -12.43797 | 36207 ft | 473 kts | 31° |
| 2026-05-05 12:22 | 34.87708 | -12.39197 | 36224 ft | 475 kts | 30° |
| 2026-05-05 12:23 | 34.93128 | -12.34575 | 36210 ft | 476 kts | 31° |
| 2026-05-05 12:23 | 34.98544 | -12.29945 | 36208 ft | 476 kts | 31° |
| 2026-05-05 12:24 | 35.03920 | -12.25312 | 36212 ft | 476 kts | 31° |
| 2026-05-05 12:24 | 35.09351 | -12.20657 | 36212 ft | 476 kts | 31° |
| 2026-05-05 12:25 | 35.14772 | -12.16000 | 36224 ft | 476 kts | 31° |
| 2026-05-05 12:25 | 35.20182 | -12.11345 | 36208 ft | 475 kts | 31° |
| 2026-05-05 12:26 | 35.25591 | -12.06686 | 36210 ft | 475 kts | 31° |
| 2026-05-05 12:26 | 35.30963 | -12.02044 | 36213 ft | 476 kts | 31° |
| 2026-05-05 12:27 | 35.36388 | -11.97366 | 36210 ft | 476 kts | 31° |
| 2026-05-05 12:27 | 35.41810 | -11.92690 | 36210 ft | 476 kts | 30° |
| 2026-05-05 12:28 | 35.47242 | -11.88025 | 36211 ft | 476 kts | 31° |
| 2026-05-05 12:28 | 35.52637 | -11.83300 | 36211 ft | 477 kts | 31° |
| 2026-05-05 12:29 | 35.58053 | -11.78597 | 36209 ft | 477 kts | 30° |
| 2026-05-05 12:29 | 35.63468 | -11.73878 | 36207 ft | 477 kts | 31° |
| 2026-05-05 12:30 | 35.68888 | -11.69142 | 36221 ft | 477 kts | 31° |
| 2026-05-05 12:30 | 35.74311 | -11.64408 | 36208 ft | 478 kts | 30° |
| 2026-05-05 12:31 | 35.79747 | -11.59671 | 36209 ft | 479 kts | 30° |
| 2026-05-05 12:31 | 35.85170 | -11.54897 | 36206 ft | 479 kts | 31° |
| 2026-05-05 12:32 | 35.90586 | -11.50105 | 36206 ft | 479 kts | 31° |
| 2026-05-05 12:32 | 35.96068 | -11.45463 | 36218 ft | 474 kts | 23° |
| 2026-05-05 12:33 | 36.02103 | -11.42593 | 36213 ft | 466 kts | 11° |
| 2026-05-05 12:33 | 36.08295 | -11.40220 | 36206 ft | 466 kts | 11° |
| 2026-05-05 12:34 | 36.14487 | -11.37832 | 36210 ft | 466 kts | 11° |
| 2026-05-05 12:34 | 36.20675 | -11.35399 | 36237 ft | 466 kts | 11° |
| 2026-05-05 12:35 | 36.26861 | -11.32959 | 36220 ft | 467 kts | 11° |
| 2026-05-05 12:35 | 36.33044 | -11.30501 | 36208 ft | 466 kts | 10° |
| 2026-05-05 12:36 | 36.39226 | -11.28036 | 36211 ft | 466 kts | 11° |
| 2026-05-05 12:36 | 36.45405 | -11.25573 | 36211 ft | 466 kts | 10° |
| 2026-05-05 12:37 | 36.51583 | -11.23104 | 36215 ft | 463 kts | 10° |
| 2026-05-05 12:37 | 36.57714 | -11.20717 | 36210 ft | 461 kts | 10° |
| 2026-05-05 12:38 | 36.63836 | -11.18295 | 36210 ft | 461 kts | 10° |
| 2026-05-05 12:38 | 36.69954 | -11.15855 | 36204 ft | 462 kts | 10° |
| 2026-05-05 12:39 | 36.76064 | -11.13407 | 36218 ft | 460 kts | 10° |
| 2026-05-05 12:39 | 36.82112 | -11.10987 | 36206 ft | 459 kts | 10° |
| 2026-05-05 12:40 | 36.88202 | -11.08541 | 36205 ft | 459 kts | 10° |
| 2026-05-05 12:40 | 36.94289 | -11.06101 | 36204 ft | 459 kts | 10° |
| 2026-05-05 12:41 | 37.00376 | -11.03658 | 36211 ft | 460 kts | 10° |
| 2026-05-05 12:41 | 37.06470 | -11.01197 | 36203 ft | 460 kts | 10° |
| 2026-05-05 12:42 | 37.12566 | -10.98738 | 36202 ft | 460 kts | 10° |
| 2026-05-05 12:42 | 37.18672 | -10.96268 | 36201 ft | 460 kts | 10° |
| 2026-05-05 12:43 | 37.24774 | -10.93791 | 36215 ft | 461 kts | 10° |
| 2026-05-05 12:43 | 37.30880 | -10.91304 | 36204 ft | 461 kts | 10° |
| 2026-05-05 12:44 | 37.36953 | -10.88836 | 36202 ft | 461 kts | 10° |
| 2026-05-05 12:44 | 37.43079 | -10.86333 | 36195 ft | 461 kts | 10° |
| 2026-05-05 12:45 | 37.49178 | -10.83840 | 36213 ft | 460 kts | 9° |
| 2026-05-05 12:45 | 37.55270 | -10.81359 | 36198 ft | 459 kts | 9° |
| 2026-05-05 12:46 | 37.61354 | -10.78876 | 36196 ft | 459 kts | 9° |
| 2026-05-05 12:46 | 37.67433 | -10.76382 | 36196 ft | 459 kts | 10° |
| 2026-05-05 12:47 | 37.73506 | -10.73884 | 36202 ft | 459 kts | 9° |
| 2026-05-05 12:47 | 37.79540 | -10.71403 | 36194 ft | 459 kts | 9° |
| 2026-05-05 12:48 | 37.85604 | -10.68903 | 36197 ft | 458 kts | 9° |
| 2026-05-05 12:48 | 37.91675 | -10.66395 | 36193 ft | 458 kts | 9° |
| 2026-05-05 12:49 | 37.97744 | -10.63880 | 36199 ft | 458 kts | 9° |
| 2026-05-05 12:49 | 38.03813 | -10.61371 | 36191 ft | 459 kts | 9° |
| 2026-05-05 12:50 | 38.09887 | -10.58851 | 36192 ft | 459 kts | 9° |
| 2026-05-05 12:50 | 38.15963 | -10.56316 | 36197 ft | 460 kts | 9° |
| 2026-05-05 12:51 | 38.22041 | -10.53789 | 36203 ft | 459 kts | 10° |
| 2026-05-05 12:51 | 38.28109 | -10.51256 | 36195 ft | 459 kts | 10° |
| 2026-05-05 12:52 | 38.34181 | -10.48710 | 36195 ft | 459 kts | 10° |
| 2026-05-05 12:52 | 38.40248 | -10.46173 | 36196 ft | 459 kts | 10° |
| 2026-05-05 12:53 | 38.46314 | -10.43628 | 36212 ft | 459 kts | 11° |
| 2026-05-05 12:53 | 38.52375 | -10.41077 | 36192 ft | 458 kts | 11° |
| 2026-05-05 12:54 | 38.60430 | -10.37685 | 36191 ft | 458 kts | 11° |
| 2026-05-05 12:55 | 38.67462 | -10.34718 | 36206 ft | 458 kts | 11° |
| 2026-05-05 12:55 | 38.73508 | -10.32165 | 36196 ft | 457 kts | 11° |
| 2026-05-05 12:56 | 38.78565 | -10.30019 | 36190 ft | 457 kts | 11° |
| 2026-05-05 12:56 | 38.84596 | -10.27456 | 36190 ft | 457 kts | 11° |
| 2026-05-05 12:57 | 38.90635 | -10.24893 | 36218 ft | 457 kts | 11° |
| 2026-05-05 12:57 | 38.96629 | -10.22343 | 36192 ft | 456 kts | 11° |
| 2026-05-05 12:58 | 39.02653 | -10.19770 | 36200 ft | 456 kts | 11° |
| 2026-05-05 12:58 | 39.08694 | -10.17185 | 36191 ft | 457 kts | 11° |
| 2026-05-05 12:59 | 39.14741 | -10.14598 | 36208 ft | 458 kts | 10° |
| 2026-05-05 12:59 | 39.20794 | -10.11997 | 36189 ft | 457 kts | 10° |
| 2026-05-05 13:00 | 39.29839 | -10.08076 | 36182 ft | 457 kts | 10° |
| 2026-05-05 13:01 | 39.41911 | -10.02884 | 36203 ft | 456 kts | 9° |
| 2026-05-05 13:01 | 39.47947 | -10.00296 | 36185 ft | 457 kts | 10° |
| 2026-05-05 13:02 | 39.53937 | -9.97702 | 36177 ft | 457 kts | 10° |
| 2026-05-05 13:02 | 39.59972 | -9.95079 | 36174 ft | 457 kts | 10° |
| 2026-05-05 13:03 | 39.65997 | -9.92458 | 36182 ft | 456 kts | 10° |
| 2026-05-05 13:03 | 39.72016 | -9.89835 | 36175 ft | 456 kts | 10° |
| 2026-05-05 13:04 | 39.78027 | -9.87205 | 36173 ft | 456 kts | 10° |
| 2026-05-05 13:04 | 39.84047 | -9.84579 | 36223 ft | 456 kts | 10° |
| 2026-05-05 13:05 | 39.90047 | -9.81951 | 36188 ft | 455 kts | 10° |
| 2026-05-05 13:05 | 39.96062 | -9.79313 | 36175 ft | 456 kts | 10° |
| 2026-05-05 13:06 | 40.02080 | -9.76668 | 36170 ft | 456 kts | 10° |
| 2026-05-05 13:06 | 40.08052 | -9.74031 | 36194 ft | 456 kts | 10° |
| 2026-05-05 13:07 | 40.14053 | -9.71338 | 36170 ft | 455 kts | 10° |
| 2026-05-05 13:07 | 40.20045 | -9.68677 | 36166 ft | 455 kts | 10° |
| 2026-05-05 13:08 | 40.26038 | -9.66015 | 36163 ft | 454 kts | 10° |
| 2026-05-05 13:08 | 40.32029 | -9.63366 | 36165 ft | 455 kts | 10° |
| 2026-05-05 13:09 | 40.38022 | -9.60698 | 36169 ft | 454 kts | 10° |
| 2026-05-05 13:09 | 40.44014 | -9.58032 | 36168 ft | 455 kts | 10° |
| 2026-05-05 13:10 | 40.50009 | -9.55346 | 36158 ft | 455 kts | 10° |
| 2026-05-05 13:10 | 40.56011 | -9.52659 | 36169 ft | 454 kts | 11° |
| 2026-05-05 13:11 | 40.61950 | -9.50013 | 36154 ft | 453 kts | 11° |
| 2026-05-05 13:11 | 40.67922 | -9.47322 | 36155 ft | 453 kts | 11° |
| 2026-05-05 13:12 | 40.73906 | -9.44646 | 36159 ft | 455 kts | 10° |
| 2026-05-05 13:12 | 40.79897 | -9.41984 | 36167 ft | 452 kts | 11° |
| 2026-05-05 13:13 | 40.85856 | -9.39293 | 36156 ft | 452 kts | 11° |
| 2026-05-05 13:13 | 40.91817 | -9.36600 | 36151 ft | 452 kts | 11° |
| 2026-05-05 13:14 | 40.97775 | -9.33899 | 36187 ft | 452 kts | 12° |
| 2026-05-05 13:14 | 41.03721 | -9.31201 | 36162 ft | 449 kts | 12° |
| 2026-05-05 13:15 | 41.09586 | -9.28535 | 36151 ft | 448 kts | 12° |
| 2026-05-05 13:15 | 41.15502 | -9.25837 | 36148 ft | 449 kts | 12° |
| 2026-05-05 13:16 | 41.21414 | -9.23137 | 36157 ft | 449 kts | 12° |
| 2026-05-05 13:16 | 41.27318 | -9.20434 | 36143 ft | 449 kts | 12° |
| 2026-05-05 13:17 | 41.33222 | -9.17725 | 36143 ft | 449 kts | 12° |
| 2026-05-05 13:17 | 41.39126 | -9.15015 | 36141 ft | 449 kts | 12° |
| 2026-05-05 13:18 | 41.45037 | -9.12295 | 36157 ft | 449 kts | 13° |
| 2026-05-05 13:18 | 41.50941 | -9.09571 | 36141 ft | 449 kts | 13° |
| 2026-05-05 13:19 | 41.56857 | -9.06840 | 36141 ft | 451 kts | 13° |
| 2026-05-05 13:19 | 41.62747 | -9.04110 | 36138 ft | 451 kts | 13° |
| 2026-05-05 13:20 | 41.68683 | -9.01361 | 36148 ft | 451 kts | 14° |
| 2026-05-05 13:20 | 41.74611 | -8.98600 | 36142 ft | 451 kts | 14° |
| 2026-05-05 13:21 | 41.80548 | -8.95839 | 36133 ft | 451 kts | 14° |
| 2026-05-05 13:21 | 41.86475 | -8.93058 | 36138 ft | 452 kts | 15° |
| 2026-05-05 13:22 | 41.92226 | -8.89539 | 36128 ft | 455 kts | 21° |
| 2026-05-05 13:22 | 41.97937 | -8.85850 | 36125 ft | 455 kts | 21° |
| 2026-05-05 13:23 | 42.03603 | -8.82187 | 36122 ft | 455 kts | 21° |
| 2026-05-05 13:23 | 42.09314 | -8.78502 | 36126 ft | 455 kts | 21° |
| 2026-05-05 13:24 | 42.15025 | -8.74807 | 36117 ft | 454 kts | 21° |
| 2026-05-05 13:24 | 42.20723 | -8.71108 | 36123 ft | 455 kts | 21° |
| 2026-05-05 13:25 | 42.26425 | -8.67403 | 36113 ft | 452 kts | 21° |
| 2026-05-05 13:25 | 42.32081 | -8.63722 | 36115 ft | 451 kts | 21° |
| 2026-05-05 13:26 | 42.37736 | -8.60029 | 36112 ft | 451 kts | 21° |
| 2026-05-05 13:26 | 42.43398 | -8.56329 | 36117 ft | 452 kts | 21° |
| 2026-05-05 13:27 | 42.49061 | -8.52614 | 36109 ft | 452 kts | 21° |
| 2026-05-05 13:27 | 42.54679 | -8.48929 | 36112 ft | 452 kts | 21° |
| 2026-05-05 13:28 | 42.60343 | -8.45205 | 36119 ft | 452 kts | 21° |
| 2026-05-05 13:28 | 42.66008 | -8.41473 | 36118 ft | 452 kts | 21° |
| 2026-05-05 13:29 | 42.71674 | -8.37721 | 36134 ft | 453 kts | 21° |
| 2026-05-05 13:29 | 42.77321 | -8.33947 | 36127 ft | 452 kts | 22° |
| 2026-05-05 13:30 | 42.82986 | -8.30160 | 36115 ft | 454 kts | 22° |
| 2026-05-05 13:30 | 42.88682 | -8.26386 | 36115 ft | 455 kts | 22° |
| 2026-05-05 13:31 | 42.94387 | -8.22633 | 36120 ft | 455 kts | 22° |
| 2026-05-05 13:31 | 43.00076 | -8.18847 | 36109 ft | 455 kts | 22° |
| 2026-05-05 13:32 | 43.05764 | -8.15042 | 36108 ft | 455 kts | 22° |
| 2026-05-05 13:32 | 43.11450 | -8.11232 | 36095 ft | 455 kts | 22° |
| 2026-05-05 13:33 | 43.17136 | -8.07414 | 36096 ft | 454 kts | 23° |
| 2026-05-05 13:33 | 43.22758 | -8.03615 | 36094 ft | 453 kts | 23° |
| 2026-05-05 13:34 | 43.28417 | -7.99801 | 36093 ft | 453 kts | 23° |
| 2026-05-05 13:34 | 43.34085 | -7.95978 | 36084 ft | 453 kts | 23° |
| 2026-05-05 13:35 | 43.39743 | -7.92148 | 36084 ft | 453 kts | 23° |
| 2026-05-05 13:35 | 43.45404 | -7.88314 | 36082 ft | 453 kts | 24° |
| 2026-05-05 13:36 | 43.51053 | -7.84469 | 36076 ft | 453 kts | 23° |
| 2026-05-05 13:36 | 43.56703 | -7.80614 | 36078 ft | 453 kts | 24° |
| 2026-05-05 13:37 | 43.62344 | -7.76726 | 36068 ft | 453 kts | 24° |
| 2026-05-05 13:37 | 43.68004 | -7.72887 | 36061 ft | 452 kts | 24° |
| 2026-05-05 13:38 | 43.73614 | -7.69050 | 36057 ft | 452 kts | 24° |
| 2026-05-05 13:38 | 43.79248 | -7.65164 | 36062 ft | 452 kts | 24° |
| 2026-05-05 13:39 | 43.83958 | -7.61920 | 36056 ft | 451 kts | 24° |
| 2026-05-05 13:39 | 43.89590 | -7.58022 | 36054 ft | 454 kts | 24° |
| 2026-05-05 13:40 | 43.95220 | -7.54145 | 36052 ft | 455 kts | 24° |
| 2026-05-05 13:40 | 44.00895 | -7.50216 | 36056 ft | 454 kts | 25° |
| 2026-05-05 13:41 | 44.06530 | -7.46293 | 36045 ft | 453 kts | 25° |
| 2026-05-05 13:41 | 44.12170 | -7.42378 | 36054 ft | 453 kts | 25° |
| 2026-05-05 13:42 | 44.17815 | -7.38440 | 36041 ft | 453 kts | 25° |
| 2026-05-05 13:42 | 44.23452 | -7.34497 | 36038 ft | 453 kts | 25° |
| 2026-05-05 13:43 | 44.29081 | -7.30559 | 36039 ft | 453 kts | 25° |
| 2026-05-05 13:43 | 44.34721 | -7.26605 | 36039 ft | 452 kts | 25° |
| 2026-05-05 13:44 | 44.40343 | -7.22643 | 36039 ft | 452 kts | 25° |
| 2026-05-05 13:44 | 44.45966 | -7.18675 | 36032 ft | 453 kts | 25° |
| 2026-05-05 13:45 | 44.51565 | -7.14707 | 36035 ft | 453 kts | 25° |
| 2026-05-05 13:45 | 44.57205 | -7.10722 | 36031 ft | 454 kts | 25° |
| 2026-05-05 13:46 | 44.62834 | -7.06738 | 36030 ft | 453 kts | 25° |
| 2026-05-05 13:46 | 44.68472 | -7.02730 | 36030 ft | 453 kts | 25° |
| 2026-05-05 13:47 | 44.74086 | -6.98733 | 36031 ft | 453 kts | 25° |
| 2026-05-05 13:47 | 44.79711 | -6.94710 | 36034 ft | 453 kts | 26° |
| 2026-05-05 13:48 | 44.85257 | -6.90535 | 36029 ft | 452 kts | 29° |
| 2026-05-05 13:48 | 44.90647 | -6.86117 | 36024 ft | 451 kts | 29° |
| 2026-05-05 13:49 | 44.96032 | -6.81687 | 36022 ft | 448 kts | 29° |
| 2026-05-05 13:49 | 45.01414 | -6.77253 | 36027 ft | 447 kts | 29° |
| 2026-05-05 13:50 | 45.06782 | -6.72811 | 36020 ft | 446 kts | 30° |
| 2026-05-05 13:50 | 45.12147 | -6.68372 | 36021 ft | 446 kts | 29° |
| 2026-05-05 13:51 | 45.17488 | -6.63952 | 36021 ft | 446 kts | 29° |
| 2026-05-05 13:51 | 45.22876 | -6.59476 | 36017 ft | 445 kts | 30° |
| 2026-05-05 13:52 | 45.28194 | -6.55051 | 36018 ft | 446 kts | 30° |
| 2026-05-05 13:52 | 45.33537 | -6.50578 | 36018 ft | 446 kts | 30° |
| 2026-05-05 13:53 | 45.38897 | -6.46082 | 36017 ft | 447 kts | 30° |
| 2026-05-05 13:53 | 45.44245 | -6.41595 | 36018 ft | 445 kts | 30° |
| 2026-05-05 13:54 | 45.49587 | -6.37122 | 36016 ft | 445 kts | 30° |
| 2026-05-05 13:54 | 45.54934 | -6.32639 | 36018 ft | 446 kts | 30° |
| 2026-05-05 13:55 | 45.60278 | -6.28128 | 36019 ft | 446 kts | 30° |
| 2026-05-05 13:55 | 45.65605 | -6.23608 | 36013 ft | 445 kts | 30° |
| 2026-05-05 13:56 | 45.70949 | -6.19081 | 36015 ft | 446 kts | 30° |
| 2026-05-05 13:56 | 45.76291 | -6.14545 | 36014 ft | 446 kts | 30° |
| 2026-05-05 13:57 | 45.81630 | -6.09993 | 36015 ft | 446 kts | 31° |
| 2026-05-05 13:57 | 45.86952 | -6.05437 | 36012 ft | 445 kts | 31° |
| 2026-05-05 13:58 | 45.92278 | -6.00880 | 36011 ft | 445 kts | 31° |
| 2026-05-05 13:58 | 45.97594 | -5.96321 | 36010 ft | 445 kts | 31° |
| 2026-05-05 13:59 | 46.05553 | -5.89475 | 36014 ft | 446 kts | 31° |
| 2026-05-05 14:00 | 46.12640 | -5.83359 | 36012 ft | 445 kts | 31° |
| 2026-05-05 14:00 | 46.18850 | -5.77978 | 36011 ft | 445 kts | 31° |
| 2026-05-05 14:01 | 46.24166 | -5.73371 | 36011 ft | 445 kts | 31° |
| 2026-05-05 14:01 | 46.29477 | -5.68752 | 36013 ft | 445 kts | 31° |
| 2026-05-05 14:02 | 46.34754 | -5.64155 | 36012 ft | 445 kts | 31° |
| 2026-05-05 14:02 | 46.40061 | -5.59510 | 36008 ft | 446 kts | 32° |
| 2026-05-05 14:03 | 46.45387 | -5.54851 | 36009 ft | 447 kts | 32° |
| 2026-05-05 14:03 | 46.50704 | -5.50182 | 36009 ft | 446 kts | 32° |
| 2026-05-05 14:04 | 46.56012 | -5.45505 | 36011 ft | 446 kts | 32° |
| 2026-05-05 14:04 | 46.61320 | -5.40833 | 36012 ft | 446 kts | 32° |
| 2026-05-05 14:05 | 46.66595 | -5.36171 | 36008 ft | 446 kts | 32° |
| 2026-05-05 14:05 | 46.71905 | -5.31469 | 36010 ft | 447 kts | 32° |
| 2026-05-05 14:06 | 46.77247 | -5.26724 | 36007 ft | 447 kts | 32° |
| 2026-05-05 14:06 | 46.82550 | -5.22005 | 36009 ft | 448 kts | 32° |
| 2026-05-05 14:07 | 46.87873 | -5.17253 | 36005 ft | 448 kts | 32° |
| 2026-05-05 14:07 | 46.93169 | -5.12514 | 36005 ft | 447 kts | 32° |
| 2026-05-05 14:08 | 46.98479 | -5.07752 | 36003 ft | 447 kts | 32° |
| 2026-05-05 14:08 | 47.03782 | -5.02986 | 36005 ft | 447 kts | 32° |
| 2026-05-05 14:09 | 47.09088 | -4.98213 | 36002 ft | 446 kts | 32° |
| 2026-05-05 14:09 | 47.14375 | -4.93440 | 35994 ft | 445 kts | 33° |
| 2026-05-05 14:10 | 47.19664 | -4.88657 | 36002 ft | 447 kts | 33° |
| 2026-05-05 14:10 | 47.24932 | -4.83877 | 36002 ft | 447 kts | 33° |
| 2026-05-05 14:11 | 47.30228 | -4.79060 | 35998 ft | 447 kts | 33° |
| 2026-05-05 14:11 | 47.35507 | -4.74251 | 36002 ft | 446 kts | 33° |
| 2026-05-05 14:12 | 47.40782 | -4.69430 | 35999 ft | 446 kts | 33° |
| 2026-05-05 14:12 | 47.46056 | -4.64604 | 35995 ft | 446 kts | 33° |
| 2026-05-05 14:13 | 47.51339 | -4.59754 | 35987 ft | 446 kts | 33° |
| 2026-05-05 14:13 | 47.56609 | -4.54905 | 35997 ft | 446 kts | 33° |
| 2026-05-05 14:14 | 47.61872 | -4.50050 | 35994 ft | 446 kts | 33° |
| 2026-05-05 14:14 | 47.67110 | -4.45210 | 36001 ft | 446 kts | 33° |
| 2026-05-05 14:15 | 47.72369 | -4.40328 | 35989 ft | 446 kts | 33° |
| 2026-05-05 14:15 | 47.77631 | -4.35446 | 35999 ft | 446 kts | 33° |
| 2026-05-05 14:16 | 47.83037 | -4.30924 | 35986 ft | 447 kts | 21° |
| 2026-05-05 14:16 | 47.88980 | -4.28279 | 35991 ft | 444 kts | 17° |
| 2026-05-05 14:17 | 47.94938 | -4.25794 | 35988 ft | 443 kts | 17° |
| 2026-05-05 14:17 | 47.99857 | -4.23695 | 35986 ft | 443 kts | 17° |
| 2026-05-05 14:18 | 48.05792 | -4.21147 | 35997 ft | 443 kts | 17° |
| 2026-05-05 14:18 | 48.11717 | -4.18596 | 35999 ft | 444 kts | 17° |
| 2026-05-05 14:19 | 48.17651 | -4.16035 | 35995 ft | 443 kts | 17° |
| 2026-05-05 14:19 | 48.23576 | -4.13470 | 36016 ft | 444 kts | 17° |
| 2026-05-05 14:20 | 48.29528 | -4.10886 | 36015 ft | 445 kts | 17° |
| 2026-05-05 14:20 | 48.35447 | -4.08314 | 36012 ft | 445 kts | 17° |
| 2026-05-05 14:21 | 48.41401 | -4.05723 | 36015 ft | 444 kts | 17° |
| 2026-05-05 14:21 | 48.47339 | -4.03127 | 36014 ft | 444 kts | 17° |
| 2026-05-05 14:22 | 48.53282 | -4.00529 | 36023 ft | 445 kts | 17° |
| 2026-05-05 14:22 | 48.59227 | -3.97919 | 36007 ft | 445 kts | 17° |
| 2026-05-05 14:23 | 48.65167 | -3.95306 | 36005 ft | 444 kts | 17° |
| 2026-05-05 14:23 | 48.71099 | -3.92691 | 36009 ft | 444 kts | 17° |
| 2026-05-05 14:24 | 48.77051 | -3.90058 | 36012 ft | 446 kts | 17° |
| 2026-05-05 14:24 | 48.83021 | -3.87415 | 36013 ft | 447 kts | 17° |
| 2026-05-05 14:25 | 48.88993 | -3.84760 | 36010 ft | 447 kts | 17° |
| 2026-05-05 14:25 | 48.94959 | -3.82099 | 36012 ft | 447 kts | 17° |
| 2026-05-05 14:26 | 49.01090 | -3.80605 | 36016 ft | 449 kts | 3° |
| 2026-05-05 14:26 | 49.07320 | -3.80279 | 36011 ft | 447 kts | 3° |
| 2026-05-05 14:27 | 49.13542 | -3.79931 | 36011 ft | 447 kts | 3° |
| 2026-05-05 14:27 | 49.19760 | -3.79560 | 36013 ft | 447 kts | 3° |
| 2026-05-05 14:28 | 49.25970 | -3.79176 | 36015 ft | 445 kts | 3° |
| 2026-05-05 14:28 | 49.32103 | -3.78800 | 36014 ft | 444 kts | 3° |
| 2026-05-05 14:29 | 49.38284 | -3.78418 | 36017 ft | 444 kts | 3° |
| 2026-05-05 14:29 | 49.44471 | -3.78036 | 36019 ft | 445 kts | 3° |
| 2026-05-05 14:30 | 49.50661 | -3.77651 | 36014 ft | 444 kts | 3° |
| 2026-05-05 14:30 | 49.56828 | -3.77272 | 36009 ft | 443 kts | 3° |
| 2026-05-05 14:31 | 49.63004 | -3.76889 | 36005 ft | 444 kts | 3° |
| 2026-05-05 14:31 | 49.69138 | -3.76498 | 35997 ft | 444 kts | 4° |
| 2026-05-05 14:32 | 49.75290 | -3.75817 | 36005 ft | 442 kts | 5° |
| 2026-05-05 14:32 | 49.81437 | -3.75087 | 36006 ft | 442 kts | 5° |
| 2026-05-05 14:33 | 49.87577 | -3.74362 | 36005 ft | 442 kts | 5° |
| 2026-05-05 14:33 | 49.93682 | -3.73640 | 36007 ft | 442 kts | 6° |
| 2026-05-05 14:34 | 49.99817 | -3.72910 | 36012 ft | 442 kts | 6° |
| 2026-05-05 14:34 | 50.05949 | -3.72178 | 36009 ft | 442 kts | 6° |
| 2026-05-05 14:35 | 50.12079 | -3.71446 | 36012 ft | 442 kts | 6° |
| 2026-05-05 14:35 | 50.18206 | -3.70715 | 36011 ft | 441 kts | 6° |
| 2026-05-05 14:36 | 50.24330 | -3.69980 | 36009 ft | 441 kts | 6° |
| 2026-05-05 14:36 | 50.30458 | -3.69244 | 36017 ft | 441 kts | 6° |
| 2026-05-05 14:37 | 50.36592 | -3.68502 | 36015 ft | 441 kts | 6° |
| 2026-05-05 14:37 | 50.42719 | -3.67673 | 36020 ft | 441 kts | 8° |
| 2026-05-05 14:38 | 50.48811 | -3.66518 | 36020 ft | 441 kts | 8° |
| 2026-05-05 14:38 | 50.54912 | -3.65345 | 36026 ft | 441 kts | 8° |
| 2026-05-05 14:39 | 50.60954 | -3.64189 | 36018 ft | 439 kts | 8° |
| 2026-05-05 14:39 | 50.67010 | -3.63029 | 36024 ft | 438 kts | 8° |
| 2026-05-05 14:40 | 50.73102 | -3.61865 | 36026 ft | 438 kts | 8° |
| 2026-05-05 14:40 | 50.79121 | -3.60708 | 36027 ft | 438 kts | 8° |
| 2026-05-05 14:41 | 50.85180 | -3.59547 | 36027 ft | 438 kts | 8° |
| 2026-05-05 14:41 | 50.91228 | -3.58382 | 36029 ft | 438 kts | 8° |
| 2026-05-05 14:42 | 50.97276 | -3.57209 | 36033 ft | 438 kts | 8° |
| 2026-05-05 14:42 | 51.03324 | -3.56038 | 36036 ft | 438 kts | 8° |
| 2026-05-05 14:43 | 51.09381 | -3.54861 | 36039 ft | 438 kts | 8° |
| 2026-05-05 14:43 | 51.15442 | -3.53685 | 36043 ft | 438 kts | 8° |
| 2026-05-05 14:44 | 51.21497 | -3.52501 | 36045 ft | 439 kts | 8° |
| 2026-05-05 14:44 | 51.27558 | -3.51309 | 36044 ft | 439 kts | 8° |
| 2026-05-05 14:45 | 51.33574 | -3.50134 | 36052 ft | 437 kts | 8° |
| 2026-05-05 14:45 | 51.39612 | -3.48938 | 36054 ft | 437 kts | 8° |
| 2026-05-05 14:46 | 51.45644 | -3.47737 | 36054 ft | 437 kts | 8° |
| 2026-05-05 14:46 | 51.51683 | -3.46533 | 36053 ft | 436 kts | 8° |
| 2026-05-05 14:47 | 51.57688 | -3.45342 | 36053 ft | 433 kts | 8° |
| 2026-05-05 14:47 | 51.63679 | -3.44149 | 36053 ft | 433 kts | 8° |
| 2026-05-05 14:48 | 51.69673 | -3.42967 | 36057 ft | 433 kts | 8° |
| 2026-05-05 14:48 | 51.75625 | -3.41778 | 36052 ft | 433 kts | 8° |
| 2026-05-05 14:49 | 51.81599 | -3.40569 | 36051 ft | 430 kts | 8° |
| 2026-05-05 14:49 | 51.84530 | -3.39980 | 35677 ft | 423 kts | 8° |
| 2026-05-05 14:49 | 51.87447 | -3.39392 | 35130 ft | 420 kts | 8° |
| 2026-05-05 14:50 | 51.90332 | -3.38804 | 34629 ft | 416 kts | 9° |
| 2026-05-05 14:50 | 51.93193 | -3.38284 | 34167 ft | 412 kts | 6° |
| 2026-05-05 14:50 | 51.96045 | -3.38036 | 33647 ft | 408 kts | 4° |
| 2026-05-05 14:50 | 51.98871 | -3.37839 | 33079 ft | 404 kts | 4° |
| 2026-05-05 14:51 | 52.01672 | -3.37646 | 32526 ft | 400 kts | 5° |
| 2026-05-05 14:51 | 52.04445 | -3.37450 | 32000 ft | 397 kts | 4° |
| 2026-05-05 14:51 | 52.07190 | -3.37254 | 31459 ft | 394 kts | 4° |
| 2026-05-05 14:51 | 52.09923 | -3.37058 | 30910 ft | 391 kts | 4° |
| 2026-05-05 14:52 | 52.12638 | -3.36860 | 30372 ft | 390 kts | 4° |
| 2026-05-05 14:52 | 52.15340 | -3.36664 | 29792 ft | 388 kts | 4° |
| 2026-05-05 14:52 | 52.18024 | -3.36468 | 29179 ft | 386 kts | 4° |
| 2026-05-05 14:52 | 52.20702 | -3.36271 | 28594 ft | 384 kts | 3° |
| 2026-05-05 14:53 | 52.23361 | -3.36078 | 28015 ft | 382 kts | 3° |
| 2026-05-05 14:53 | 52.26010 | -3.35888 | 27468 ft | 379 kts | 4° |
| 2026-05-05 14:53 | 52.28603 | -3.35700 | 26935 ft | 377 kts | 3° |
| 2026-05-05 14:53 | 52.31224 | -3.35510 | 26391 ft | 375 kts | 3° |
| 2026-05-05 14:54 | 52.33828 | -3.35319 | 25859 ft | 374 kts | 3° |
| 2026-05-05 14:54 | 52.36425 | -3.35128 | 25337 ft | 373 kts | 2° |
| 2026-05-05 14:54 | 52.39011 | -3.34937 | 24826 ft | 372 kts | 2° |
| 2026-05-05 14:54 | 52.41590 | -3.34746 | 24321 ft | 371 kts | 2° |
| 2026-05-05 14:55 | 52.44160 | -3.34555 | 23834 ft | 370 kts | 2° |
| 2026-05-05 14:55 | 52.46730 | -3.34367 | 23297 ft | 369 kts | 2° |
| 2026-05-05 14:55 | 52.49286 | -3.34181 | 22819 ft | 365 kts | 1° |
| 2026-05-05 14:55 | 52.51801 | -3.33993 | 22388 ft | 361 kts | 1° |
| 2026-05-05 14:56 | 52.54298 | -3.33808 | 21932 ft | 357 kts | 0° |
| 2026-05-05 14:56 | 52.56775 | -3.33625 | 21470 ft | 354 kts | 0° |
| 2026-05-05 14:56 | 52.59234 | -3.33443 | 21004 ft | 352 kts | 0° |
| 2026-05-05 14:56 | 52.61666 | -3.33254 | 20554 ft | 349 kts | 2° |
| 2026-05-05 14:57 | 52.64057 | -3.32559 | 20174 ft | 349 kts | 15° |
| 2026-05-05 14:57 | 52.66356 | -3.31247 | 20073 ft | 349 kts | 19° |
| 2026-05-05 14:57 | 52.68627 | -3.29850 | 20063 ft | 349 kts | 19° |
| 2026-05-05 14:57 | 52.70910 | -3.28454 | 20074 ft | 349 kts | 19° |
| 2026-05-05 14:58 | 52.73185 | -3.27078 | 20090 ft | 347 kts | 19° |
| 2026-05-05 14:58 | 52.75448 | -3.25718 | 20090 ft | 346 kts | 19° |
| 2026-05-05 14:58 | 52.76947 | -3.24819 | 20091 ft | 346 kts | 19° |
| 2026-05-05 14:58 | 52.79945 | -3.23026 | 20090 ft | 346 kts | 19° |
| 2026-05-05 14:59 | 52.82201 | -3.21675 | 19996 ft | 340 kts | 19° |
| 2026-05-05 14:59 | 52.83697 | -3.20778 | 19686 ft | 339 kts | 19° |
| 2026-05-05 14:59 | 52.86643 | -3.19006 | 19055 ft | 339 kts | 19° |
| 2026-05-05 14:59 | 52.88141 | -3.18112 | 18751 ft | 339 kts | 18° |
| 2026-05-05 15:00 | 52.90425 | -3.17280 | 18303 ft | 335 kts | 4° |
| 2026-05-05 15:00 | 52.92740 | -3.17054 | 17829 ft | 332 kts | 0° |
| 2026-05-05 15:00 | 52.95045 | -3.16913 | 17375 ft | 330 kts | 0° |
| 2026-05-05 15:00 | 52.97305 | -3.16765 | 16935 ft | 327 kts | 1° |
| 2026-05-05 15:01 | 52.99569 | -3.16603 | 16539 ft | 324 kts | 1° |
| 2026-05-05 15:01 | 53.01819 | -3.16435 | 16117 ft | 322 kts | 1° |
| 2026-05-05 15:01 | 53.04053 | -3.16262 | 15701 ft | 320 kts | 1° |
| 2026-05-05 15:01 | 53.06270 | -3.16089 | 15290 ft | 318 kts | 1° |
| 2026-05-05 15:02 | 53.08474 | -3.15917 | 14882 ft | 316 kts | 0° |
| 2026-05-05 15:02 | 53.10657 | -3.15745 | 14483 ft | 314 kts | 0° |
| 2026-05-05 15:02 | 53.12832 | -3.15573 | 14087 ft | 312 kts | 0° |
| 2026-05-05 15:02 | 53.14994 | -3.15402 | 13664 ft | 310 kts | 0° |
| 2026-05-05 15:03 | 53.17131 | -3.15234 | 13324 ft | 305 kts | 0° |
| 2026-05-05 15:03 | 53.19222 | -3.15066 | 13139 ft | 294 kts | 0° |
| 2026-05-05 15:03 | 53.21232 | -3.14904 | 12964 ft | 284 kts | 0° |
| 2026-05-05 15:03 | 53.23165 | -3.14750 | 12675 ft | 279 kts | 0° |
| 2026-05-05 15:04 | 53.25102 | -3.14596 | 12320 ft | 277 kts | 0° |
| 2026-05-05 15:04 | 53.27019 | -3.14443 | 11957 ft | 275 kts | 0° |
| 2026-05-05 15:04 | 53.28919 | -3.14293 | 11595 ft | 273 kts | 0° |
| 2026-05-05 15:04 | 53.30808 | -3.14142 | 11249 ft | 271 kts | 0° |
| 2026-05-05 15:05 | 53.34541 | -3.13843 | 10560 ft | 267 kts | 0° |
| 2026-05-05 15:05 | 53.36392 | -3.13694 | 10227 ft | 265 kts | 0° |
| 2026-05-05 15:05 | 53.38212 | -3.13278 | 9873 ft | 265 kts | 16° |
| 2026-05-05 15:06 | 53.39789 | -3.11689 | 9462 ft | 268 kts | 44° |
| 2026-05-05 15:06 | 53.40850 | -3.09150 | 9192 ft | 264 kts | 59° |
| 2026-05-05 15:06 | 53.41717 | -3.06504 | 9027 ft | 254 kts | 60° |
| 2026-05-05 15:06 | 53.42554 | -3.03945 | 8778 ft | 248 kts | 59° |
| 2026-05-05 15:07 | 53.43389 | -3.01433 | 8471 ft | 246 kts | 60° |
| 2026-05-05 15:07 | 53.43927 | -2.98733 | 8094 ft | 246 kts | 85° |
| 2026-05-05 15:07 | 53.43683 | -2.95920 | 7716 ft | 245 kts | 114° |
| 2026-05-05 15:07 | 53.42763 | -2.93560 | 7379 ft | 242 kts | 133° |
| 2026-05-05 15:08 | 53.41625 | -2.91477 | 7058 ft | 240 kts | 135° |
| 2026-05-05 15:08 | 53.40495 | -2.89420 | 6749 ft | 239 kts | 134° |
| 2026-05-05 15:08 | 53.39384 | -2.87353 | 6433 ft | 238 kts | 134° |
| 2026-05-05 15:08 | 53.38286 | -2.85285 | 6109 ft | 237 kts | 133° |
| 2026-05-05 15:09 | 53.37212 | -2.83244 | 5800 ft | 235 kts | 133° |
| 2026-05-05 15:09 | 53.36153 | -2.81221 | 5585 ft | 226 kts | 133° |
| 2026-05-05 15:09 | 53.35143 | -2.79290 | 5423 ft | 214 kts | 133° |
| 2026-05-05 15:09 | 53.34187 | -2.77462 | 5229 ft | 205 kts | 133° |
| 2026-05-05 15:10 | 53.33258 | -2.75685 | 4913 ft | 202 kts | 133° |
| 2026-05-05 15:10 | 53.32336 | -2.73920 | 4554 ft | 201 kts | 133° |
| 2026-05-05 15:10 | 53.31418 | -2.72158 | 4187 ft | 201 kts | 133° |
| 2026-05-05 15:10 | 53.30498 | -2.70402 | 3819 ft | 201 kts | 132° |
| 2026-05-05 15:11 | 53.29578 | -2.68646 | 3547 ft | 201 kts | 132° |
| 2026-05-05 15:11 | 53.28656 | -2.66887 | 3506 ft | 201 kts | 131° |
| 2026-05-05 15:11 | 53.27735 | -2.65126 | 3512 ft | 201 kts | 131° |
| 2026-05-05 15:11 | 53.26810 | -2.63362 | 3521 ft | 201 kts | 131° |
| 2026-05-05 15:12 | 53.25885 | -2.61606 | 3529 ft | 201 kts | 132° |
| 2026-05-05 15:12 | 53.24958 | -2.59847 | 3531 ft | 201 kts | 132° |
| 2026-05-05 15:12 | 53.24036 | -2.58088 | 3575 ft | 202 kts | 131° |
| 2026-05-05 15:12 | 53.23113 | -2.56329 | 3570 ft | 201 kts | 131° |
| 2026-05-05 15:13 | 53.22401 | -2.54373 | 3531 ft | 200 kts | 103° |
| 2026-05-05 15:13 | 53.22567 | -2.52158 | 3481 ft | 193 kts | 59° |
| 2026-05-05 15:13 | 53.23401 | -2.50435 | 3291 ft | 192 kts | 42° |
| 2026-05-05 15:13 | 53.24338 | -2.48871 | 3035 ft | 187 kts | 42° |
| 2026-05-05 15:14 | 53.25199 | -2.47316 | 2765 ft | 178 kts | 45° |
| 2026-05-05 15:14 | 53.25984 | -2.45791 | 2520 ft | 169 kts | 46° |
| 2026-05-05 15:14 | 53.26730 | -2.44285 | 2292 ft | 167 kts | 47° |
| 2026-05-05 15:14 | 53.27464 | -2.42786 | 2057 ft | 166 kts | 47° |
| 2026-05-05 15:15 | 53.28190 | -2.41302 | 1828 ft | 165 kts | 47° |
| 2026-05-05 15:15 | 53.28912 | -2.39822 | 1583 ft | 164 kts | 47° |
| 2026-05-05 15:15 | 53.29631 | -2.38350 | 1358 ft | 163 kts | 48° |
| 2026-05-05 15:15 | 53.30338 | -2.36901 | 1114 ft | 156 kts | 49° |
| 2026-05-05 15:16 | 53.30955 | -2.35635 | 902 ft | 145 kts | 49° |
| 2026-05-05 15:16 | 53.31600 | -2.34339 | 749 ft | 144 kts | 49° |
| 2026-05-05 15:16 | 53.32231 | -2.33036 | 568 ft | 144 kts | 50° |
| 2026-05-05 15:16 | 53.32865 | -2.31745 | 384 ft | 144 kts | 50° |
| 2026-05-05 15:17 | 53.33490 | -2.30457 | 234 ft | 137 kts | 51° |
| 2026-05-05 15:17 | 53.33981 | -2.29447 | 235 ft | 82 kts | 50° |
| 2026-05-05 15:17 | 53.34231 | -2.28934 | 233 ft | 44 kts | 53° |
| 2026-05-05 15:17 | 53.34383 | -2.28658 | 230 ft | 26 kts | 36° |
| 2026-05-05 15:18 | 53.34516 | -2.28523 | 233 ft | 12 kts | 20° |
| 2026-05-05 15:18 | 53.34597 | -2.28473 | 234 ft | 13 kts | 21° |
| 2026-05-05 15:18 | 53.34688 | -2.28413 | 236 ft | 15 kts | 27° |
| 2026-05-05 15:18 | 53.34768 | -2.28283 | 236 ft | 17 kts | 51° |
| 2026-05-05 15:19 | 53.34846 | -2.28124 | 236 ft | 17 kts | 51° |
| 2026-05-05 15:19 | 53.34904 | -2.28003 | 236 ft | 11 kts | 51° |
| 2026-05-05 15:19 | 53.34981 | -2.27989 | 237 ft | 14 kts | 323° |
| 2026-05-05 15:19 | 53.35066 | -2.28110 | 239 ft | 17 kts | 320° |
| 2026-05-05 15:20 | 53.35138 | -2.28198 | 240 ft | 9 kts | 341° |
| 2026-05-05 15:20 | 53.35194 | -2.28200 | 236 ft | 8 kts | 6° |
| 2026-05-05 15:20 | 53.35231 | -2.28193 | 236 ft | 0 kts | 6° |
| 2026-05-05 15:21 | 53.35239 | -2.28192 | 236 ft | 3 kts | 6° |
| 2026-05-05 15:21 | 53.35279 | -2.28184 | 238 ft | 8 kts | 6° |
| 2026-05-05 15:21 | 53.35353 | -2.28170 | 240 ft | 13 kts | 7° |
| 2026-05-05 15:22 | 53.35449 | -2.28149 | 241 ft | 15 kts | 8° |
| 2026-05-05 15:22 | 53.35541 | -2.28067 | 240 ft | 16 kts | 45° |
| 2026-05-05 15:22 | 53.35613 | -2.27925 | 245 ft | 14 kts | 44° |
| 2026-05-05 15:22 | 53.35691 | -2.27883 | 249 ft | 8 kts | 5° |
| 2026-05-05 15:23 | 53.35754 | -2.27871 | 253 ft | 10 kts | 6° |
| 2026-05-05 15:23 | 53.35832 | -2.27857 | 257 ft | 12 kts | 6° |
| 2026-05-05 15:23 | 53.35926 | -2.27850 | 261 ft | 14 kts | 351° |
| 2026-05-05 15:23 | 53.36014 | -2.27932 | 260 ft | 15 kts | 318° |
| 2026-05-05 15:24 | 53.36097 | -2.28054 | 260 ft | 16 kts | 317° |
| 2026-05-05 15:24 | 53.36161 | -2.28152 | 260 ft | 7 kts | 334° |
| 2026-05-05 15:24 | 53.36209 | -2.28137 | 260 ft | 8 kts | 30° |
| 2026-05-05 15:24 | 53.36260 | -2.28084 | 260 ft | 9 kts | 29° |
| 2026-05-05 15:25 | 53.36323 | -2.28037 | 260 ft | 11 kts | 32° |
| 2026-05-05 15:25 | 53.36372 | -2.27966 | 260 ft | 6 kts | 45° |
| 2026-05-05 15:25 | 53.36411 | -2.27930 | 260 ft | 7 kts | 4° |
| 2026-05-05 15:25 | 53.36436 | -2.27943 | 260 ft | 2 kts | 327° |
| 2026-05-05 15:26 | 53.36451 | -2.27961 | 260 ft | 3 kts | 319° |
| 2026-05-05 15:26 | 53.36472 | -2.27988 | 260 ft | 4 kts | 326° |
| 2026-05-05 15:26 | 53.36503 | -2.28010 | 260 ft | 6 kts | 17° |
| 2026-05-05 15:26 | 53.36534 | -2.27968 | 260 ft | 4 kts | 45° |
| 2026-05-05 15:27 | 53.36544 | -2.27952 | 260 ft | 2 kts | 45° |
| 2026-05-05 15:27 | 53.36550 | -2.27941 | 260 ft | 0 kts | 44° |
| 2026-05-05 15:27 | 53.36551 | -2.27940 | 260 ft | 1 kts | 44° |
| 2026-05-05 15:27 | 53.36552 | -2.27938 | 260 ft | 0 kts | 45° |